Time;durP1;ratioP1;P1;durP2;ratioP2;P2;SDS_P1;SDS_P2;PMS_P1;PMS_P2;Temp;Humidity;BMP_temperature;BMP_pressure;BME280_temperature;BME280_humidity;BME280_pressure;Samples;Min_cycle;Max_cycle;Signal;HPM_P1;HPM_P2
2022/05/27 03:10:34;;;;;;;9.87;8.97;;;;;;;24.58;42.56;95577.88;6147755;28;1450632;-60
2022/05/27 03:13:54;;;;;;;6.90;6.30;;;;;;;24.67;42.13;95569.88;6196903;28;102983;-59
2022/05/27 03:17:16;;;;;;;7.70;7.00;;;;;;;24.74;42.28;95568.38;6214404;28;103241;-60
2022/05/27 03:20:35;;;;;;;7.83;6.80;;;;;;;24.79;42.47;95581.59;6207526;28;104049;-61
2022/05/27 03:23:50;;;;;;;8.30;7.70;;;;;;;24.82;42.12;95577.50;6214196;28;104263;-59
2022/05/27 03:27:20;;;;;;;9.70;7.70;;;;;;;24.84;42.29;95577.97;6210934;28;103053;-60
2022/05/27 03:30:30;;;;;;;9.03;6.80;;;;;;;24.87;42.20;95581.97;6213584;28;104011;-60
2022/05/27 03:33:41;;;;;;;7.83;7.20;;;;;;;24.77;41.91;95577.66;6204125;28;104056;-60
2022/05/27 03:36:50;;;;;;;8.10;6.30;;;;;;;24.59;42.73;95578.66;6213806;28;102840;-60
2022/05/27 03:40:00;;;;;;;9.93;6.97;;;;;;;24.61;42.30;95587.94;6207378;28;103374;-60
2022/05/27 03:43:06;;;;;;;7.87;7.10;;;;;;;24.74;42.40;95583.63;6191193;28;102975;-61
2022/05/27 03:46:12;;;;;;;9.40;6.63;;;;;;;24.67;42.26;95572.53;6200151;28;103470;-60
2022/05/27 03:49:15;;;;;;;7.57;6.97;;;;;;;24.74;42.44;95568.38;6199143;28;103393;-60
2022/05/27 03:52:22;;;;;;;11.63;7.27;;;;;;;24.83;42.41;95581.75;6193163;28;103297;-61
2022/05/27 03:55:27;;;;;;;8.50;7.80;;;;;;;24.91;44.60;95578.34;6186515;28;103017;-60
2022/05/27 03:58:31;;;;;;;8.30;7.43;;;;;;;24.91;43.36;95578.34;6210094;28;103157;-63
2022/05/27 04:01:36;;;;;;;7.40;6.60;;;;;;;24.85;43.34;95574.22;6209862;28;102931;-60
2022/05/27 04:04:40;;;;;;;8.57;6.63;;;;;;;24.82;43.92;95574.03;6192908;28;104756;-61
2022/05/27 04:07:43;;;;;;;8.43;7.70;;;;;;;24.85;43.21;95568.84;6183519;28;104822;-61
2022/05/27 04:10:46;;;;;;;9.30;7.43;;;;;;;24.94;42.29;95575.03;6186602;28;103321;-60
2022/05/27 04:13:52;;;;;;;6.73;6.10;;;;;;;24.96;42.57;95572.03;6196034;28;103319;-60
2022/05/27 04:17:27;;;;;;;6.97;6.30;;;;;;;24.90;43.46;95571.41;6200152;28;103224;-61
2022/05/27 04:20:21;;;;;;;7.63;6.50;;;;;;;24.73;42.02;95574.81;6201613;28;102964;-61
2022/05/27 04:23:24;;;;;;;6.40;5.70;;;;;;;24.64;42.02;95570.50;6205160;28;103241;-59
2022/05/27 04:26:28;;;;;;;9.40;6.33;;;;;;;24.76;41.48;95573.41;6210340;28;103271;-60
2022/05/27 04:29:32;;;;;;;6.73;6.20;;;;;;;24.79;41.67;95578.13;6205768;28;104178;-60
2022/05/27 04:32:35;;;;;;;7.97;6.40;;;;;;;24.86;42.11;95569.63;6215303;28;104091;-60
2022/05/27 04:35:39;;;;;;;7.13;6.50;;;;;;;24.87;41.83;95569.34;6216212;28;104152;-61
2022/05/27 04:38:43;;;;;;;7.50;6.80;;;;;;;24.89;41.87;95564.47;6216237;28;104233;-60
2022/05/27 04:41:46;;;;;;;7.10;6.40;;;;;;;24.89;41.70;95569.84;6203394;28;104161;-60
2022/05/27 04:44:51;;;;;;;7.53;6.90;;;;;;;24.88;41.61;95567.47;6213228;28;103031;-59
2022/05/27 04:47:54;;;;;;;6.97;6.37;;;;;;;24.88;41.75;95570.94;6213944;28;104005;-59
2022/05/27 04:50:58;;;;;;;6.77;5.63;;;;;;;24.86;41.96;95570.44;6206912;28;104026;-60
2022/05/27 04:54:01;;;;;;;7.10;6.20;;;;;;;24.75;41.61;95569.16;6208863;28;103002;-60
2022/05/27 04:57:05;;;;;;;5.73;5.33;;;;;;;24.81;41.79;95573.25;6215120;28;102991;-59
2022/05/27 05:00:13;;;;;;;6.43;5.83;;;;;;;24.83;41.86;95573.72;6215943;28;104267;-59
2022/05/27 05:03:16;;;;;;;6.10;5.50;;;;;;;24.85;41.71;95576.88;6187846;28;103184;-60
2022/05/27 05:06:20;;;;;;;7.17;6.57;;;;;;;24.87;41.68;95569.34;6215135;28;104191;-60
2022/05/27 05:09:23;;;;;;;8.17;6.70;;;;;;;24.88;41.94;95562.91;6215068;28;103066;-60
2022/05/27 05:12:26;;;;;;;8.37;7.67;;;;;;;24.77;41.91;95567.75;6215532;28;102992;-60
2022/05/27 05:15:31;;;;;;;6.90;6.40;;;;;;;24.75;42.20;95567.25;6204855;28;103324;-59
2022/05/27 05:18:34;;;;;;;7.80;6.30;;;;;;;24.71;42.09;95560.16;6214797;28;103354;-59
2022/05/27 05:21:37;;;;;;;6.93;6.33;;;;;;;24.74;42.52;95567.56;6214990;28;103341;-60
2022/05/27 05:24:41;;;;;;;9.87;7.10;;;;;;;24.81;42.19;95567.13;6211332;28;103025;-60
2022/05/27 05:27:44;;;;;;;7.90;7.20;;;;;;;24.84;42.13;95567.28;6209248;28;104157;-60
2022/05/27 05:30:49;;;;;;;12.00;7.77;;;;;;;24.90;42.03;95562.59;6215631;28;103265;-60
2022/05/27 05:33:52;;;;;;;8.10;7.20;;;;;;;24.96;42.08;95564.78;6214597;28;102928;-60
2022/05/27 05:36:56;;;;;;;7.10;6.40;;;;;;;25.02;42.24;95568.13;6205075;28;103189;-60
2022/05/27 05:39:59;;;;;;;7.80;7.00;;;;;;;25.08;42.10;95562.31;6214813;28;104163;-60
2022/05/27 05:43:02;;;;;;;7.83;7.13;;;;;;;25.09;41.90;95558.53;6214634;28;103378;-60
2022/05/27 05:46:07;;;;;;;7.57;6.80;;;;;;;25.12;42.28;95567.03;6214437;28;102940;-60
2022/05/27 05:49:10;;;;;;;7.27;6.57;;;;;;;25.16;41.94;95558.06;6203917;28;103297;-61
2022/05/27 05:52:14;;;;;;;7.03;6.43;;;;;;;25.23;41.98;95562.97;6214719;28;103133;-59
2022/05/27 05:55:19;;;;;;;7.87;7.10;;;;;;;25.29;42.06;95557.16;6214401;28;103550;-60
2022/05/27 05:58:22;;;;;;;7.00;6.50;;;;;;;25.35;42.04;95565.84;6211577;28;103112;-59
2022/05/27 06:01:27;;;;;;;6.70;6.20;;;;;;;25.39;42.27;95556.09;6178884;28;103553;-59
2022/05/27 06:04:30;;;;;;;7.00;6.37;;;;;;;25.43;42.24;95562.41;6188910;28;102928;-60
2022/05/27 06:07:34;;;;;;;8.00;7.20;;;;;;;25.46;42.40;95561.75;6189439;28;102993;-59
2022/05/27 06:10:38;;;;;;;7.40;6.70;;;;;;;25.50;42.19;95567.28;6182824;28;103129;-60
2022/05/27 06:13:41;;;;;;;8.20;6.80;;;;;;;25.54;42.68;95566.34;6185681;28;104600;-59
2022/05/27 06:16:46;;;;;;;7.13;6.53;;;;;;;25.59;42.05;95563.50;6188995;28;104775;-59
2022/05/27 06:19:49;;;;;;;7.77;7.03;;;;;;;25.54;42.14;95563.66;6188358;28;103986;-60
2022/05/27 06:22:52;;;;;;;6.90;6.37;;;;;;;25.55;42.06;95565.25;6177690;28;104172;-59
2022/05/27 06:25:59;;;;;;;7.20;6.70;;;;;;;25.58;42.22;95559.25;6188227;28;103994;-59
2022/05/27 06:35:47;;;;;;;7.40;6.57;;;;;;;25.71;41.82;95559.38;6181321;28;103951;-59
2022/05/27 06:38:50;;;;;;;7.23;6.50;;;;;;;25.76;41.75;95564.59;6188026;28;103034;-60
2022/05/27 06:41:53;;;;;;;7.07;6.40;;;;;;;25.77;41.76;95556.25;6187541;28;103170;-60
2022/05/27 06:44:56;;;;;;;7.17;6.47;;;;;;;25.76;41.35;95559.25;6178583;28;103215;-59
2022/05/27 06:48:01;;;;;;;7.27;6.57;;;;;;;25.74;41.74;95550.72;6187500;28;104267;-59
2022/05/27 06:51:06;;;;;;;7.13;5.90;;;;;;;25.77;41.48;95550.09;6187586;28;104027;-60
2022/05/27 06:54:10;;;;;;;7.03;6.43;;;;;;;25.84;41.77;95545.81;6187662;28;103149;-59
2022/05/27 06:57:14;;;;;;;7.87;5.93;;;;;;;25.84;41.43;95543.13;6178453;28;105594;-60
2022/05/27 07:00:17;;;;;;;5.70;5.20;;;;;;;25.87;41.18;95542.50;6204585;28;103126;-59
2022/05/27 07:03:23;;;;;;;5.87;5.27;;;;;;;25.95;41.31;95535.56;6212452;28;104164;-59
2022/05/27 07:06:28;;;;;;;6.10;5.60;;;;;;;26.01;40.96;95533.53;6212442;28;102716;-59
2022/05/27 07:09:35;;;;;;;6.30;5.80;;;;;;;26.02;41.02;95529.72;6201279;28;103151;-59
2022/05/27 07:12:39;;;;;;;5.60;4.90;;;;;;;26.02;40.86;95533.19;6212249;28;102926;-60
2022/05/27 07:15:43;;;;;;;8.03;5.90;;;;;;;25.97;41.00;95528.75;6212431;28;103002;-59
2022/05/27 07:18:47;;;;;;;5.80;5.40;;;;;;;26.02;40.92;95527.03;6206345;28;103835;-59
2022/05/27 07:21:52;;;;;;;6.50;6.00;;;;;;;26.07;40.87;95521.53;6210437;28;104564;-60
2022/05/27 07:24:56;;;;;;;6.33;5.83;;;;;;;26.12;40.44;95511.41;6211682;28;102992;-60
2022/05/27 07:28:00;;;;;;;6.73;6.10;;;;;;;26.19;40.64;95513.59;6212205;28;103245;-60
2022/05/27 07:31:03;;;;;;;6.80;5.50;;;;;;;26.23;40.45;95509.97;6202687;28;105196;-60
2022/05/27 07:34:14;;;;;;;6.40;5.80;;;;;;;26.16;40.54;95503.50;6211971;28;103990;-60
2022/05/27 07:37:17;;;;;;;6.20;5.70;;;;;;;26.21;40.89;95509.50;6212383;28;104032;-59
2022/05/27 07:40:21;;;;;;;7.00;5.83;;;;;;;26.26;40.83;95503.16;6211992;28;104168;-59
2022/05/27 07:43:25;;;;;;;6.60;6.10;;;;;;;26.35;40.84;95500.44;6201807;28;103935;-59
2022/05/27 07:46:30;;;;;;;6.20;5.70;;;;;;;26.39;40.70;95496.03;6211827;28;102940;-60
2022/05/27 07:49:34;;;;;;;7.20;6.50;;;;;;;26.36;40.26;95489.38;6211305;28;103982;-60
2022/05/27 07:52:37;;;;;;;7.03;5.10;;;;;;;26.37;40.39;95487.47;6207531;28;104181;-60
2022/05/27 07:55:41;;;;;;;6.13;5.53;;;;;;;26.36;39.65;95484.00;6206441;28;103209;-59
2022/05/27 07:58:44;;;;;;;5.53;5.03;;;;;;;26.38;40.10;95481.00;6206974;28;103159;-59
2022/05/27 08:01:47;;;;;;;7.50;5.50;;;;;;;26.42;40.49;95482.75;6187018;28;103995;-59
2022/05/27 08:04:53;;;;;;;5.93;5.43;;;;;;;26.43;40.16;95480.84;6181307;28;103825;-60
2022/05/27 08:07:58;;;;;;;5.27;4.80;;;;;;;26.47;40.31;95479.88;6191141;28;102978;-59
2022/05/27 08:11:01;;;;;;;5.63;5.17;;;;;;;26.48;39.08;95480.66;6190515;28;103145;-60
2022/05/27 08:14:05;;;;;;;5.67;5.17;;;;;;;26.47;39.69;95474.50;6190946;28;103011;-60
2022/05/27 08:17:08;;;;;;;6.47;5.60;;;;;;;26.49;39.97;95468.81;6180693;28;103205;-59
2022/05/27 08:20:20;;;;;;;5.73;5.33;;;;;;;26.42;40.14;95465.84;6190360;28;103337;-60
2022/05/27 08:23:24;;;;;;;5.00;4.60;;;;;;;26.44;39.79;95461.72;6191450;28;104124;-60
2022/05/27 08:26:27;;;;;;;6.30;5.07;;;;;;;26.35;39.62;95465.56;6186049;28;104175;-58
2022/05/27 08:29:30;;;;;;;4.70;4.30;;;;;;;25.98;37.97;95463.28;6185330;28;103099;-60
2022/05/27 08:32:33;;;;;;;4.83;4.40;;;;;;;25.97;38.41;95464.41;6189583;28;103168;-59
2022/05/27 08:38:59;;;;;;;5.40;4.83;;;;;;;26.20;38.66;95445.41;6179550;28;103095;-61
2022/05/27 08:42:12;;;;;;;6.17;4.70;;;;;;;26.18;38.96;95437.69;6190316;28;104151;-59
2022/05/27 08:45:23;;;;;;;7.90;5.03;;;;;;;26.19;38.83;95441.16;6190249;28;103149;-59
2022/05/27 08:48:29;;;;;;;4.97;4.53;;;;;;;26.14;38.52;95441.34;6190218;28;104247;-60
2022/05/27 08:51:39;;;;;;;5.63;5.10;;;;;;;26.21;38.56;95439.75;6180487;28;104124;-59
2022/05/27 08:54:49;;;;;;;8.77;4.80;;;;;;;26.25;38.88;95442.56;6189685;28;102963;-59
2022/05/27 09:01:13;;;;;;;5.57;4.97;;;;;;;26.48;38.09;95435.81;6180110;28;103614;-59
2022/05/27 09:04:25;;;;;;;6.50;5.90;;;;;;;26.47;38.92;95430.78;6190028;28;104130;-59
2022/05/27 09:07:38;;;;;;;6.03;5.30;;;;;;;26.38;38.72;95436.19;6190780;28;103373;-59
2022/05/27 09:10:56;;;;;;;7.57;5.97;;;;;;;26.38;39.01;95433.50;6189193;28;103261;-59
2022/05/27 09:14:10;;;;;;;6.47;5.70;;;;;;;26.37;38.60;95429.22;6179492;28;103184;-60
2022/05/27 09:17:21;;;;;;;7.30;6.20;;;;;;;26.39;38.70;95421.66;6189810;28;103328;-59
2022/05/27 09:20:37;;;;;;;7.10;6.13;;;;;;;26.53;38.79;95421.41;6189797;28;103429;-59
2022/05/27 09:24:04;;;;;;;7.53;6.87;;;;;;;26.53;38.59;95421.41;6180049;28;104239;-59
2022/05/27 09:27:09;;;;;;;7.33;6.63;;;;;;;26.55;38.82;95416.53;6189810;28;103075;-59
2022/05/27 09:30:15;;;;;;;7.10;6.40;;;;;;;26.53;38.59;95416.81;6189684;28;104070;-59
2022/05/27 09:33:21;;;;;;;6.93;6.33;;;;;;;26.47;39.04;95410.09;6188523;28;103013;-61
2022/05/27 09:36:29;;;;;;;6.50;6.00;;;;;;;26.41;38.63;95403.34;6179229;28;104713;-59
2022/05/27 09:39:34;;;;;;;6.97;6.37;;;;;;;26.38;39.18;95392.44;6188835;28;103107;-59
2022/05/27 09:42:44;;;;;;;7.07;6.47;;;;;;;26.39;39.45;95394.03;6188927;28;104331;-60
2022/05/27 09:45:51;;;;;;;7.23;6.50;;;;;;;26.38;39.42;95390.56;6184441;28;103990;-59
2022/05/27 09:48:57;;;;;;;8.53;6.57;;;;;;;26.47;38.98;95385.13;6184760;28;103507;-60
2022/05/27 09:52:01;;;;;;;7.10;6.40;;;;;;;26.46;39.34;95383.56;6189007;28;103257;-59
2022/05/27 09:55:20;;;;;;;6.57;5.97;;;;;;;26.62;39.17;95371.16;6188812;28;103096;-59
2022/05/27 09:58:26;;;;;;;7.47;6.17;;;;;;;26.57;39.04;95371.34;6179976;28;104215;-56
2022/05/27 10:01:30;;;;;;;7.20;6.07;;;;;;;26.58;39.17;95371.03;6212577;28;103045;-57
2022/05/27 10:04:33;;;;;;;6.87;6.13;;;;;;;26.58;39.41;95362.97;6213264;28;103969;-57
2022/05/27 10:07:39;;;;;;;6.70;6.07;;;;;;;26.59;39.41;95355.69;6212756;28;103083;-58
2022/05/27 10:10:44;;;;;;;6.70;5.90;;;;;;;26.60;39.01;95356.47;6202204;28;103901;-57
2022/05/27 10:13:48;;;;;;;6.80;6.17;;;;;;;26.62;39.31;95354.25;6213360;28;103965;-58
2022/05/27 10:17:08;;;;;;;6.70;6.07;;;;;;;26.60;39.29;95346.53;6212489;28;103148;-57
2022/05/27 10:20:22;;;;;;;8.70;6.33;;;;;;;26.59;39.41;95350.31;6206513;28;104107;-59
2022/05/27 10:23:28;;;;;;;11.20;6.63;;;;;;;26.58;39.40;95332.66;6211418;28;104458;-57
2022/05/27 10:26:35;;;;;;;6.10;5.50;;;;;;;26.57;39.67;95331.09;6211676;28;102733;-57
2022/05/27 10:29:51;;;;;;;6.10;5.50;;;;;;;26.58;38.99;95330.75;6212963;28;102719;-60
2022/05/27 10:32:56;;;;;;;5.97;5.37;;;;;;;26.57;39.50;95323.81;6202200;28;103029;-57
2022/05/27 10:35:59;;;;;;;6.03;5.43;;;;;;;26.55;39.19;95322.56;6212366;28;103033;-59
2022/05/27 10:39:06;;;;;;;8.00;6.27;;;;;;;26.56;39.33;95326.81;6211753;28;103063;-57
2022/05/27 10:42:31;;;;;;;6.10;5.60;;;;;;;26.52;39.84;95307.88;6212751;28;104276;-59
2022/05/27 10:45:39;;;;;;;7.17;6.53;;;;;;;26.53;39.41;95314.81;6206949;28;104086;-57
2022/05/27 10:49:13;;;;;;;6.80;6.20;;;;;;;26.53;39.26;95304.09;6212257;28;103002;-57
2022/05/27 10:52:33;;;;;;;6.20;5.67;;;;;;;26.51;39.46;95300.94;6212112;28;102966;-61
2022/05/27 10:55:58;;;;;;;6.33;5.73;;;;;;;26.50;39.68;95303.97;6202859;28;104093;-57
2022/05/27 11:03:06;;;;;;;6.13;5.60;;;;;;;26.49;39.38;95284.38;6212088;28;103388;-57
2022/05/27 11:06:26;;;;;;;5.60;4.97;;;;;;;26.47;39.39;95273.19;6184943;28;102928;-58
2022/05/27 11:09:41;;;;;;;6.97;5.90;;;;;;;26.43;39.69;95271.50;6211502;28;104286;-57
2022/05/27 11:16:41;;;;;;;6.43;5.27;;;;;;;26.45;39.58;95261.22;6211460;28;103983;-57
2022/05/27 11:20:06;;;;;;;7.37;6.03;;;;;;;26.44;39.00;95254.28;6206965;28;103517;-58
2022/05/27 11:23:25;;;;;;;7.43;5.60;;;;;;;26.45;39.24;95250.50;6211510;28;104022;-57
2022/05/27 11:26:38;;;;;;;6.87;5.60;;;;;;;26.42;39.72;95254.63;6212230;28;103980;-57
2022/05/27 11:30:04;;;;;;;6.47;5.80;;;;;;;26.42;39.69;95243.09;6200480;28;102987;-58
2022/05/27 11:33:33;;;;;;;5.33;4.83;;;;;;;26.41;39.53;95241.53;6211520;28;103039;-59
2022/05/27 11:36:51;;;;;;;6.77;5.97;;;;;;;26.38;39.69;95229.56;6211451;28;103974;-58
2022/05/27 11:40:06;;;;;;;6.13;5.27;;;;;;;26.40;39.24;95223.88;6201962;28;103054;-58
2022/05/27 11:43:30;;;;;;;5.47;4.97;;;;;;;26.38;39.77;95209.97;6211408;28;103959;-59
2022/05/27 11:47:10;;;;;;;5.97;5.37;;;;;;;26.38;39.42;95207.28;6210621;28;104077;-57
2022/05/27 11:50:27;;;;;;;6.40;5.13;;;;;;;26.38;39.53;95208.09;6211554;28;103967;-57
2022/05/27 11:53:51;;;;;;;5.90;5.30;;;;;;;26.36;39.52;95191.50;6202932;28;104011;-58
2022/05/27 11:57:07;;;;;;;5.37;4.87;;;;;;;26.37;39.47;95189.63;6211089;28;103132;-57
2022/05/27 12:00:13;;;;;;;5.33;4.90;;;;;;;26.36;39.64;95188.81;6194168;28;103026;-57
2022/05/27 12:03:22;;;;;;;5.57;4.90;;;;;;;26.34;39.54;95190.28;6176797;28;103984;-57
2022/05/27 12:06:34;;;;;;;6.33;5.70;;;;;;;26.33;39.14;95178.75;6185989;28;104012;-56
2022/05/27 12:09:43;;;;;;;5.90;5.20;;;;;;;26.34;39.12;95177.63;6186618;28;103946;-57
2022/05/27 12:12:54;;;;;;;5.93;5.43;;;;;;;26.33;39.47;95168.03;6186202;28;102911;-59
2022/05/27 12:16:01;;;;;;;5.90;5.03;;;;;;;26.35;39.19;95167.69;6175274;28;104745;-57
2022/05/27 12:19:09;;;;;;;5.17;4.77;;;;;;;26.32;39.04;95161.09;6186027;28;103131;-57
2022/05/27 12:22:21;;;;;;;5.87;5.27;;;;;;;26.31;39.74;95151.47;6185270;28;102989;-59
2022/05/27 12:25:28;;;;;;;6.80;4.63;;;;;;;26.31;39.13;95156.06;6176884;28;103879;-57
2022/05/27 12:28:37;;;;;;;5.27;4.80;;;;;;;26.32;39.39;95158.41;6185702;28;103163;-57
2022/05/27 12:31:42;;;;;;;5.57;5.07;;;;;;;26.32;39.56;95136.16;6185892;28;103311;-58
2022/05/27 12:34:48;;;;;;;6.17;5.23;;;;;;;26.31;39.63;95134.59;6186344;28;103989;-57
2022/05/27 12:37:59;;;;;;;6.27;5.17;;;;;;;26.31;39.72;95131.91;6175263;28;104065;-58
2022/05/27 12:41:05;;;;;;;5.43;5.07;;;;;;;26.30;39.63;95128.44;6186288;28;103500;-57
2022/05/27 12:44:25;;;;;;;5.60;5.10;;;;;;;26.31;39.07;95123.88;6185896;28;104131;-59
2022/05/27 12:47:31;;;;;;;5.30;4.90;;;;;;;26.30;39.35;95123.06;6181397;28;103436;-58
2022/05/27 12:50:38;;;;;;;5.23;4.83;;;;;;;26.31;39.74;95113.13;6183502;28;103033;-59
2022/05/27 12:53:46;;;;;;;5.47;4.73;;;;;;;26.31;39.74;95113.13;6190259;28;103304;-57
2022/05/27 13:03:50;;;;;;;5.00;4.60;;;;;;;26.30;39.41;95098.16;6214800;28;103048;-57
2022/05/27 13:07:07;;;;;;;5.33;4.70;;;;;;;26.32;39.30;95085.97;6213847;28;103194;-57
2022/05/27 13:10:43;;;;;;;5.13;4.73;;;;;;;26.32;39.07;95085.97;6209054;28;103433;-57
2022/05/27 13:13:46;;;;;;;7.10;5.70;;;;;;;26.33;39.23;95089.44;6213864;28;103991;-62
2022/05/27 13:17:12;;;;;;;6.47;4.53;;;;;;;26.36;38.63;95086.84;6214854;28;103059;-61
2022/05/27 13:20:23;;;;;;;8.07;4.80;;;;;;;26.38;38.81;95073.09;6214441;28;104103;-61
2022/05/27 13:23:28;;;;;;;6.67;5.00;;;;;;;26.38;37.91;95068.56;6203362;28;104075;-61
2022/05/27 13:26:39;;;;;;;6.13;5.00;;;;;;;26.42;37.30;95066.75;6214344;28;104102;-61
2022/05/27 13:29:45;;;;;;;11.40;6.10;;;;;;;26.39;36.75;95072.03;6213695;28;104010;-58
2022/05/27 13:33:01;;;;;;;6.37;5.70;;;;;;;26.36;37.50;95062.72;6209087;28;104534;-57
2022/05/27 13:36:17;;;;;;;7.50;5.83;;;;;;;26.37;37.83;95069.66;6208168;28;104037;-57
2022/05/27 13:39:25;;;;;;;9.10;4.90;;;;;;;26.38;37.85;95065.88;6214094;28;104896;-57
2022/05/27 13:42:32;;;;;;;6.37;5.07;;;;;;;26.37;37.59;95053.53;6213216;28;104001;-57
2022/05/27 13:45:44;;;;;;;5.00;4.60;;;;;;;26.35;37.91;95061.16;6203130;28;103060;-57
2022/05/27 13:48:51;;;;;;;6.13;5.20;;;;;;;26.36;38.44;95072.66;6213760;28;102960;-57
2022/05/27 13:51:54;;;;;;;7.37;5.90;;;;;;;26.35;38.34;95069.19;6212922;28;103117;-58
2022/05/27 13:55:04;;;;;;;6.13;4.90;;;;;;;26.34;38.71;95064.94;6214157;28;103314;-57
2022/05/27 13:58:09;;;;;;;6.33;5.37;;;;;;;26.36;38.59;95059.25;6202685;28;102972;-57
2022/05/27 14:01:13;;;;;;;6.80;5.47;;;;;;;26.35;38.61;95063.03;6188766;28;103022;-58
2022/05/27 14:04:25;;;;;;;6.43;5.33;;;;;;;26.32;38.47;95048.41;6188655;28;103058;-57
2022/05/27 14:07:31;;;;;;;4.83;4.43;;;;;;;26.34;38.59;95056.13;6179286;28;103071;-59
2022/05/27 14:10:42;;;;;;;5.10;4.70;;;;;;;26.34;39.11;95061.47;6187905;28;103983;-58
2022/05/27 14:13:51;;;;;;;6.37;4.43;;;;;;;26.32;39.22;95051.09;6187702;28;103020;-57
2022/05/27 14:16:54;;;;;;;5.83;5.30;;;;;;;26.32;39.28;95048.41;6188745;28;103204;-57
2022/05/27 14:20:03;;;;;;;5.93;5.07;;;;;;;26.32;38.90;95044.94;6178058;28;103963;-57
2022/05/27 14:23:17;;;;;;;5.33;4.87;;;;;;;26.30;39.16;95036.44;6188387;28;103001;-58
2022/05/27 14:26:20;;;;;;;5.70;5.20;;;;;;;26.32;39.24;95026.16;6187552;28;103058;-58
2022/05/27 14:29:26;;;;;;;5.00;4.30;;;;;;;26.32;38.85;95024.25;6187290;28;104279;-59
2022/05/27 14:32:34;;;;;;;6.03;4.97;;;;;;;26.32;39.07;95018.88;6193527;28;103002;-57
2022/05/27 14:35:38;;;;;;;5.80;4.73;;;;;;;26.31;38.92;95014.63;6198974;28;103208;-58
2022/05/27 14:38:44;;;;;;;5.90;4.80;;;;;;;26.34;39.41;95021.22;6207835;28;103720;-60
2022/05/27 14:41:48;;;;;;;5.57;4.60;;;;;;;26.34;39.89;95026.59;6180653;28;103695;-60
2022/05/27 14:44:53;;;;;;;5.30;4.80;;;;;;;26.38;40.33;95014.06;6187511;28;103923;-60
2022/05/27 14:47:56;;;;;;;5.50;5.03;;;;;;;26.36;40.13;95011.72;6188236;28;103968;-60
2022/05/27 14:51:13;;;;;;;11.57;5.30;;;;;;;26.41;40.35;95016.13;6187099;28;103034;-60
2022/05/27 14:54:25;;;;;;;5.43;4.80;;;;;;;26.34;40.75;95011.28;6177582;28;104059;-60
2022/05/27 14:57:32;;;;;;;6.07;4.90;;;;;;;26.33;40.65;95004.34;6186601;28;103725;-60
2022/05/27 15:00:44;;;;;;;5.30;4.80;;;;;;;26.38;40.88;95011.41;6207215;28;103145;-59
2022/05/27 15:04:17;;;;;;;5.33;4.80;;;;;;;26.36;40.78;95005.59;6207461;28;103659;-61
2022/05/27 15:07:23;;;;;;;5.80;5.30;;;;;;;26.33;41.32;95007.03;6210838;28;103167;-60
2022/05/27 15:10:29;;;;;;;5.30;4.80;;;;;;;26.33;40.78;95003.56;6211608;28;103134;-60
2022/05/27 15:13:45;;;;;;;6.17;5.67;;;;;;;26.31;40.70;95000.44;6211674;28;104039;-60
2022/05/27 15:16:57;;;;;;;6.83;5.03;;;;;;;26.33;40.49;95003.56;6201014;28;104107;-59
2022/05/27 15:20:06;;;;;;;6.83;6.20;;;;;;;26.35;41.14;94995.97;6209469;28;103959;-60
2022/05/27 15:23:10;;;;;;;8.47;5.80;;;;;;;26.36;41.24;94992.94;6206974;28;102996;-59
2022/05/27 15:33:19;;;;;;;9.00;5.57;;;;;;;26.33;41.37;94998.97;6208003;28;104169;-57
2022/05/27 15:36:23;;;;;;;7.93;6.10;;;;;;;26.31;41.68;94990.50;6209897;28;103019;-58
2022/05/27 15:39:26;;;;;;;10.83;6.73;;;;;;;26.32;41.60;94983.22;6198469;28;104473;-57
2022/05/27 15:42:29;;;;;;;8.40;5.97;;;;;;;26.32;41.76;94985.91;6208153;28;104334;-58
2022/05/27 15:45:32;;;;;;;9.10;6.23;;;;;;;26.31;41.44;94987.81;6208871;28;103082;-57
2022/05/27 15:48:37;;;;;;;6.93;5.80;;;;;;;26.31;41.15;94984.34;6208416;28;104027;-57
2022/05/27 15:51:40;;;;;;;8.17;6.07;;;;;;;26.31;41.68;94985.13;6199537;28;103104;-57
2022/05/27 15:54:43;;;;;;;8.90;5.73;;;;;;;26.32;41.15;94983.22;6210637;28;103030;-58
2022/05/27 15:57:46;;;;;;;7.17;5.90;;;;;;;26.31;41.21;94989.72;6210281;28;104004;-57
2022/05/27 16:00:49;;;;;;;7.50;5.83;;;;;;;26.29;41.06;94992.72;6202817;28;104040;-59
2022/05/27 16:03:54;;;;;;;7.17;5.43;;;;;;;26.29;41.40;94992.72;6208743;28;103333;-58
2022/05/27 16:06:59;;;;;;;6.53;5.53;;;;;;;26.28;41.35;94991.94;6210534;28;102892;-57
2022/05/27 16:10:03;;;;;;;6.73;5.50;;;;;;;26.29;41.23;94990.03;6210352;28;104386;-57
2022/05/27 16:13:08;;;;;;;6.03;5.30;;;;;;;26.29;41.08;94990.03;6200170;28;103721;-57
2022/05/27 16:19:33;;;;;;;7.87;6.00;;;;;;;26.30;41.56;94990.81;6209656;28;103126;-57
2022/05/27 16:22:39;;;;;;;6.77;5.80;;;;;;;26.27;41.05;94990.38;6210270;28;102880;-57
2022/05/27 16:26:01;;;;;;;8.37;5.83;;;;;;;26.27;41.24;94993.06;6209124;28;104579;-57
2022/05/27 16:29:05;;;;;;;8.27;6.03;;;;;;;26.27;41.25;94993.06;6214404;28;103235;-57
2022/05/27 16:32:08;;;;;;;6.37;5.77;;;;;;;26.27;41.45;94987.69;6214253;28;103181;-57
2022/05/27 16:35:15;;;;;;;7.03;6.33;;;;;;;26.26;41.25;94983.44;6203898;28;103023;-56
2022/05/27 16:38:18;;;;;;;7.63;4.97;;;;;;;26.27;41.55;94987.69;6215099;28;104132;-57
2022/05/27 16:41:24;;;;;;;5.47;4.97;;;;;;;26.26;41.58;94985.34;6214341;28;105733;-56
2022/05/27 16:44:28;;;;;;;6.70;5.90;;;;;;;26.26;41.14;94982.66;6214271;28;103152;-57
2022/05/27 16:47:31;;;;;;;7.53;5.30;;;;;;;26.26;41.04;94980.00;6203654;28;103178;-56
2022/05/27 16:50:37;;;;;;;6.77;5.60;;;;;;;26.25;41.08;94979.19;6214389;28;103464;-57
2022/05/27 16:53:40;;;;;;;7.03;5.60;;;;;;;26.26;41.27;94980.78;6214958;28;103206;-57
2022/05/27 16:56:43;;;;;;;6.67;5.87;;;;;;;26.26;41.08;94988.81;6213167;28;102969;-56
2022/05/27 16:59:46;;;;;;;5.70;5.20;;;;;;;26.26;41.13;94988.81;6190491;28;103301;-57
2022/05/27 17:02:49;;;;;;;6.43;5.80;;;;;;;26.25;41.47;94989.94;6189068;28;104314;-56
2022/05/27 17:05:54;;;;;;;6.07;5.00;;;;;;;26.25;41.06;94986.47;6189226;28;103136;-57
2022/05/27 17:08:57;;;;;;;7.93;5.33;;;;;;;26.25;41.25;94991.84;6181220;28;104489;-57
2022/05/27 17:12:01;;;;;;;6.43;5.50;;;;;;;26.23;41.24;94983.34;6186651;28;105545;-56
2022/05/27 17:15:05;;;;;;;6.00;5.50;;;;;;;26.23;41.42;94986.03;6189438;28;104361;-56
2022/05/27 17:18:19;;;;;;;7.10;5.80;;;;;;;26.24;41.00;94979.53;6188704;28;102994;-59
2022/05/27 17:21:23;;;;;;;5.90;5.40;;;;;;;26.23;41.05;94978.75;6177929;28;103759;-56
2022/05/27 17:24:28;;;;;;;6.10;5.50;;;;;;;26.24;41.60;94979.53;6189109;28;103000;-57
2022/05/27 17:27:31;;;;;;;6.67;5.90;;;;;;;26.22;41.50;94977.19;6188381;28;102997;-57
2022/05/27 17:30:37;;;;;;;6.57;5.70;;;;;;;26.22;41.06;94984.47;6189370;28;104271;-57
2022/05/27 17:33:40;;;;;;;6.20;5.30;;;;;;;26.22;41.49;94989.81;6178115;28;103503;-57
2022/05/27 17:36:45;;;;;;;5.70;5.20;;;;;;;26.21;41.23;94990.91;6189191;28;103243;-57
2022/05/27 17:39:48;;;;;;;6.67;6.00;;;;;;;26.21;41.11;94983.69;6188211;28;103000;-57
2022/05/27 17:42:52;;;;;;;6.20;5.33;;;;;;;26.20;41.11;94982.09;6180749;28;103619;-58
2022/05/27 17:45:55;;;;;;;5.90;5.40;;;;;;;26.20;41.65;94983.97;6186989;28;103310;-57
2022/05/27 17:52:20;;;;;;;6.30;5.80;;;;;;;26.19;41.21;94982.41;6188377;28;102998;-59
2022/05/27 17:55:24;;;;;;;6.80;5.50;;;;;;;26.18;41.54;94986.22;6178518;28;103906;-56
2022/05/27 17:58:28;;;;;;;5.77;5.27;;;;;;;26.19;41.37;94985.09;6189754;28;103034;-57
2022/05/27 18:01:31;;;;;;;6.80;6.20;;;;;;;26.17;41.18;94985.44;6212353;28;102986;-57
2022/05/27 18:04:35;;;;;;;6.13;5.53;;;;;;;26.18;41.13;94983.53;6212719;28;104216;-56
2022/05/27 18:07:40;;;;;;;6.53;5.93;;;;;;;26.18;41.16;94991.59;6203069;28;104190;-60
2022/05/27 18:10:43;;;;;;;6.33;5.73;;;;;;;26.17;41.05;94993.47;6212085;28;104207;-57
2022/05/27 18:13:46;;;;;;;6.67;6.07;;;;;;;26.17;41.13;95006.91;6212851;28;103124;-57
2022/05/27 18:16:50;;;;;;;5.80;5.30;;;;;;;26.18;41.23;95021.09;6207119;28;102854;-56
2022/05/27 18:19:53;;;;;;;5.77;5.27;;;;;;;26.17;41.09;95017.63;6208994;28;103163;-57
2022/05/27 18:22:58;;;;;;;6.10;5.50;;;;;;;26.17;41.73;95017.63;6213296;28;104278;-57